Time;durP1;ratioP1;P1;durP2;ratioP2;P2;SDS_P1;SDS_P2;PMS_P1;PMS_P2;Temp;Humidity;BMP_temperature;BMP_pressure;BME280_temperature;BME280_humidity;BME280_pressure;Samples;Min_cycle;Max_cycle;Signal;HPM_P1;HPM_P2
2022/05/13 00:00:02;;;;;;;8.73;2.00;;;;;;;12.75;70.99;101884.97;5038321;28;20281;-77
2022/05/13 00:02:27;;;;;;;5.85;1.67;;;;;;;12.76;71.03;101886.72;5054123;28;20104;-77
2022/05/13 00:04:53;;;;;;;5.70;1.50;;;;;;;12.77;71.91;101875.28;5041877;28;20139;-77
2022/05/13 00:07:19;;;;;;;17.00;3.63;;;;;;;12.77;71.64;101891.94;5058339;28;20512;-76
2022/05/13 00:09:56;;;;;;;8.60;2.10;;;;;;;12.75;72.57;101890.22;5058095;28;20067;-77
2022/05/13 00:12:25;;;;;;;14.20;2.83;;;;;;;12.73;73.47;101892.91;5042572;28;20052;-77
2022/05/13 00:14:52;;;;;;;7.30;2.25;;;;;;;12.76;73.41;101870.94;5051905;28;20037;-77
2022/05/13 00:17:18;;;;;;;11.30;2.40;;;;;;;12.77;74.01;101873.53;5041434;28;20395;-76
2022/05/13 00:19:44;;;;;;;9.90;2.25;;;;;;;12.75;74.43;101872.72;5050314;28;20037;-76
2022/05/13 00:22:10;;;;;;;9.13;2.33;;;;;;;12.77;74.13;101867.38;5025274;28;20070;-77
2022/05/13 00:24:36;;;;;;;22.23;4.80;;;;;;;12.75;76.22;101882.34;5059009;28;20380;-76
2022/05/13 00:27:01;;;;;;;16.98;3.13;;;;;;;12.72;76.58;101875.44;5058266;28;20021;-77
2022/05/13 00:29:27;;;;;;;16.25;2.80;;;;;;;12.70;77.23;101876.38;5057553;28;20060;-77
2022/05/13 00:31:52;;;;;;;15.82;2.78;;;;;;;12.73;76.55;101877.13;5043301;28;20289;-77
2022/05/13 00:34:19;;;;;;;15.23;2.97;;;;;;;12.72;77.87;101878.06;5039126;28;20036;-77
2022/05/13 00:36:44;;;;;;;16.42;3.40;;;;;;;12.72;78.08;101878.06;5037419;28;20070;-77
2022/05/13 00:39:09;;;;;;;12.20;2.22;;;;;;;12.71;77.90;101876.34;5057441;28;20068;-77
2022/05/13 00:41:36;;;;;;;18.98;3.35;;;;;;;12.73;78.05;101873.66;5047587;28;20271;-77
2022/05/13 00:44:03;;;;;;;14.27;3.08;;;;;;;12.73;78.92;101878.91;5052749;28;20039;-77
2022/05/13 00:46:29;;;;;;;11.60;3.22;;;;;;;12.74;78.64;101876.25;5058718;28;20052;-76
2022/05/13 00:48:56;;;;;;;14.85;2.53;;;;;;;12.75;78.42;101869.22;5057639;28;20037;-77
2022/05/13 00:51:26;;;;;;;21.45;3.20;;;;;;;12.74;78.70;101865.72;5057574;28;20628;-77
2022/05/13 00:53:52;;;;;;;16.42;3.38;;;;;;;12.77;77.98;101859.50;5057328;28;20048;-76
2022/05/13 00:56:19;;;;;;;12.90;3.00;;;;;;;12.73;78.63;101866.63;5058663;28;20075;-77
2022/05/13 00:58:47;;;;;;;19.38;2.85;;;;;;;12.77;78.56;101863.00;5057692;28;20056;-76
2022/05/13 01:01:14;;;;;;;11.65;2.60;;;;;;;12.79;78.40;101866.44;5059086;28;20041;-77
2022/05/13 01:03:40;;;;;;;22.48;3.40;;;;;;;12.79;78.63;101861.19;5058414;28;20055;-76
2022/05/13 01:06:10;;;;;;;15.10;2.92;;;;;;;12.79;78.74;101865.59;5056448;28;20289;-76
2022/05/13 01:08:36;;;;;;;13.02;3.15;;;;;;;12.81;78.27;101858.50;5055398;28;20029;-77
2022/05/13 01:11:07;;;;;;;18.98;3.15;;;;;;;12.83;78.03;101861.94;5040892;28;20059;-77
2022/05/13 01:13:34;;;;;;;12.75;2.33;;;;;;;12.85;77.97;101865.38;5052808;28;20029;-77
2022/05/13 01:16:00;;;;;;;16.92;3.28;;;;;;;12.83;78.11;101857.53;5041485;28;20037;-77
2022/05/13 01:18:35;;;;;;;12.10;2.20;;;;;;;12.81;78.59;101859.34;5052964;28;20036;-77
2022/05/13 01:21:02;;;;;;;12.90;2.78;;;;;;;12.84;77.98;101856.63;5056280;28;20049;-77
2022/05/13 01:23:31;;;;;;;12.65;3.30;;;;;;;12.87;78.06;101867.03;5038460;28;20033;-76
2022/05/13 01:26:01;;;;;;;13.63;2.70;;;;;;;12.89;77.81;101860.88;5047346;28;20462;-77
2022/05/13 01:28:34;;;;;;;17.58;3.00;;;;;;;12.83;78.61;101862.78;5036578;28;20065;-77
2022/05/13 01:31:03;;;;;;;16.80;2.92;;;;;;;12.84;78.11;101855.75;5056504;28;20032;-76
2022/05/13 01:33:29;;;;;;;12.10;2.92;;;;;;;12.84;77.83;101861.91;5057621;28;20371;-77
2022/05/13 01:35:57;;;;;;;17.88;3.30;;;;;;;12.81;78.01;101853.25;5056739;28;20049;-77
2022/05/13 01:38:30;;;;;;;11.98;2.63;;;;;;;12.82;77.43;101854.94;5058022;28;20068;-76
2022/05/13 01:40:56;;;;;;;23.38;3.28;;;;;;;12.85;77.61;101858.34;5055822;28;20037;-76
2022/05/13 01:43:22;;;;;;;9.68;1.95;;;;;;;12.89;77.39;101860.88;5055256;28;20025;-77
2022/05/13 01:45:48;;;;;;;13.77;2.63;;;;;;;12.86;77.90;101862.69;5051586;28;20087;-77
2022/05/13 01:48:13;;;;;;;11.70;2.70;;;;;;;12.86;77.47;101854.81;5056611;28;20348;-77
2022/05/13 01:50:39;;;;;;;9.18;2.35;;;;;;;12.86;77.03;101853.94;5047162;28;20033;-77
2022/05/13 01:53:05;;;;;;;13.85;3.03;;;;;;;12.87;77.12;101859.13;5038660;28;20045;-76
2022/05/13 01:55:31;;;;;;;12.32;2.80;;;;;;;12.87;76.97;101853.03;5049190;28;20243;-77
2022/05/13 01:57:57;;;;;;;11.45;2.28;;;;;;;12.89;76.79;101856.47;5043696;28;20032;-76
2022/05/13 02:00:23;;;;;;;11.18;2.35;;;;;;;12.87;76.45;101860.91;5077928;28;20243;-77
2022/05/13 02:05:33;;;;;;;9.27;2.17;;;;;;;12.88;75.41;101865.28;5075876;28;20232;-77
2022/05/13 02:07:58;;;;;;;8.65;2.13;;;;;;;12.87;75.42;101848.63;5060013;28;20028;-77
2022/05/13 02:10:24;;;;;;;10.30;2.35;;;;;;;12.87;75.33;101847.78;5059404;28;20284;-77
2022/05/13 02:12:49;;;;;;;11.40;2.17;;;;;;;12.86;74.69;101849.56;5042720;28;20036;-77
2022/05/13 02:15:15;;;;;;;11.27;1.90;;;;;;;12.85;74.36;101846.97;5077113;28;20033;-77
2022/05/13 02:17:40;;;;;;;9.88;2.42;;;;;;;12.85;74.66;101846.97;5065045;28;20103;-77
2022/05/13 02:20:07;;;;;;;11.00;2.08;;;;;;;12.84;74.30;101851.38;5058921;28;20066;-77
2022/05/13 02:22:33;;;;;;;10.07;2.53;;;;;;;12.85;73.98;101854.84;5054921;28;20071;-77
2022/05/13 02:24:58;;;;;;;10.18;2.15;;;;;;;12.81;74.60;101855.88;5048579;28;20045;-77
2022/05/13 02:27:24;;;;;;;7.68;2.03;;;;;;;12.81;74.12;101858.50;5058259;28;20040;-77
2022/05/13 02:29:49;;;;;;;16.95;2.50;;;;;;;12.81;74.11;101848.00;5040055;28;20033;-77
2022/05/13 02:32:14;;;;;;;6.55;2.20;;;;;;;12.76;74.41;101848.13;5042217;28;20051;-77
2022/05/13 02:34:40;;;;;;;8.35;2.17;;;;;;;12.80;74.20;101852.38;5058842;28;20252;-77
2022/05/13 02:37:06;;;;;;;7.82;2.20;;;;;;;12.74;74.44;101841.22;5076907;28;20040;-77
2022/05/13 02:39:31;;;;;;;4.05;1.42;;;;;;;12.74;74.25;101836.81;5076789;28;20036;-77
2022/05/13 02:41:56;;;;;;;7.45;2.20;;;;;;;12.76;73.55;101836.78;5076608;28;20050;-77
2022/05/13 02:44:23;;;;;;;9.77;2.47;;;;;;;12.72;73.98;101829.91;5076889;28;20036;-77
2022/05/13 02:46:48;;;;;;;7.03;1.83;;;;;;;12.75;73.70;101819.28;5058144;28;20036;-77
2022/05/13 02:49:14;;;;;;;8.85;2.00;;;;;;;12.75;73.53;101825.41;5077022;28;20040;-78
2022/05/13 02:51:40;;;;;;;10.18;2.22;;;;;;;12.74;73.36;101825.44;5058430;28;20220;-77
2022/05/13 02:54:07;;;;;;;5.50;1.70;;;;;;;12.73;72.95;101824.56;5076552;28;20072;-77
2022/05/13 02:56:33;;;;;;;5.90;2.20;;;;;;;12.73;72.93;101828.97;5052747;28;20033;-77
2022/05/13 02:58:59;;;;;;;6.53;2.13;;;;;;;12.69;73.38;101825.59;5058152;28;20180;-77
2022/05/13 03:01:25;;;;;;;6.70;1.92;;;;;;;12.71;73.13;101829.03;5047644;28;20028;-77
2022/05/13 03:03:51;;;;;;;11.30;2.08;;;;;;;12.71;72.95;101829.03;5077038;28;20328;-77
2022/05/13 03:06:18;;;;;;;6.65;1.90;;;;;;;12.67;72.85;101825.66;5076434;28;20040;-77
2022/05/13 03:08:44;;;;;;;4.35;1.58;;;;;;;12.68;72.74;101826.53;5057607;28;20340;-77
2022/05/13 03:11:09;;;;;;;6.47;2.17;;;;;;;12.69;72.88;101838.75;5063285;28;20036;-77
2022/05/13 03:13:35;;;;;;;6.30;2.00;;;;;;;12.68;72.94;101832.63;5049447;28;20341;-78
2022/05/13 03:16:06;;;;;;;5.75;1.77;;;;;;;12.66;73.40;101816.06;5068070;28;20032;-77
2022/05/13 03:18:31;;;;;;;6.40;1.52;;;;;;;12.66;73.21;101828.31;5076367;28;20029;-77
2022/05/13 03:20:57;;;;;;;9.30;2.88;;;;;;;12.64;73.31;101823.13;5058364;28;20036;-77
2022/05/13 03:23:22;;;;;;;9.40;2.00;;;;;;;12.64;73.23;101820.50;5071546;28;20036;-77
2022/05/13 03:25:48;;;;;;;5.60;1.55;;;;;;;12.64;73.34;101828.41;5058429;28;20091;-77
2022/05/13 03:28:13;;;;;;;5.95;1.52;;;;;;;12.61;73.59;101825.00;5046854;28;20045;-77
2022/05/13 03:30:39;;;;;;;3.13;1.30;;;;;;;12.62;73.40;101831.97;5038742;28;20040;-77
2022/05/13 03:33:04;;;;;;;6.20;1.75;;;;;;;12.60;73.41;101839.03;5040091;28;20036;-78
2022/05/13 03:35:30;;;;;;;6.03;1.83;;;;;;;12.59;73.46;101838.19;5037141;28;20091;-77
2022/05/13 03:37:55;;;;;;;5.90;1.77;;;;;;;12.57;73.65;101849.66;5055064;28;20048;-77
2022/05/13 03:40:21;;;;;;;8.20;2.22;;;;;;;12.54;74.16;101855.03;5062564;28;20044;-77
2022/05/13 03:42:47;;;;;;;7.90;1.67;;;;;;;12.52;73.51;101846.34;5061991;28;20036;-77
2022/05/13 03:45:15;;;;;;;6.28;1.42;;;;;;;12.54;73.47;101845.38;5080355;28;20034;-77
2022/05/13 03:47:41;;;;;;;6.80;1.90;;;;;;;12.52;74.01;101844.56;5061971;28;20028;-77
2022/05/13 03:50:08;;;;;;;4.90;1.83;;;;;;;12.55;73.79;101838.34;5079923;28;20088;-77
2022/05/13 03:52:34;;;;;;;8.48;1.95;;;;;;;12.58;73.64;101848.75;5061289;28;20257;-78
2022/05/13 03:54:59;;;;;;;6.13;2.00;;;;;;;12.58;73.57;101856.63;5060407;28;20055;-77
2022/05/13 03:57:25;;;;;;;5.88;1.65;;;;;;;12.57;73.71;101853.16;5057499;28;20224;-77
2022/05/13 03:59:50;;;;;;;6.63;1.83;;;;;;;12.53;73.88;101859.41;5067702;28;20055;-77
2022/05/13 04:02:16;;;;;;;4.15;1.40;;;;;;;12.54;73.64;101869.00;5062262;28;20112;-77
2022/05/13 04:10:09;;;;;;;9.32;1.63;;;;;;;12.52;74.47;101859.47;5048367;28;20396;-78
2022/05/13 04:18:07;;;;;;;3.60;1.73;;;;;;;12.49;74.47;101852.53;5051108;28;20067;-77
2022/05/13 04:20:34;;;;;;;8.35;1.95;;;;;;;12.47;74.71;101852.56;5060162;28;20033;-77
2022/05/13 04:23:00;;;;;;;5.30;1.60;;;;;;;12.46;75.04;101858.75;5077786;28;20577;-77
2022/05/13 04:25:26;;;;;;;12.27;1.92;;;;;;;12.42;75.28;101854.50;5077631;28;20037;-77
2022/05/13 04:27:51;;;;;;;8.65;2.10;;;;;;;12.41;75.54;101858.03;5043244;28;20570;-77
2022/05/13 04:30:17;;;;;;;6.50;1.73;;;;;;;12.41;75.57;101852.78;5074844;28;20037;-78
2022/05/13 04:32:43;;;;;;;6.63;1.33;;;;;;;12.43;75.56;101852.75;5076968;28;20063;-77
2022/05/13 04:35:08;;;;;;;10.02;1.83;;;;;;;12.44;75.80;101849.19;5077794;28;20037;-79
2022/05/13 04:37:33;;;;;;;7.32;2.25;;;;;;;12.42;76.04;101856.25;5043148;28;20323;-78
2022/05/13 04:39:59;;;;;;;10.80;1.90;;;;;;;12.38;76.41;101855.50;5077165;28;20111;-78
2022/05/13 04:45:09;;;;;;;5.50;1.77;;;;;;;12.43;76.69;101871.13;5077521;28;20040;-78
2022/05/13 04:50:21;;;;;;;8.50;2.00;;;;;;;12.42;76.89;101882.53;5073062;28;20116;-77
2022/05/13 04:52:46;;;;;;;5.35;2.13;;;;;;;12.42;77.03;101890.41;5049043;28;20036;-77
2022/05/13 04:55:11;;;;;;;10.50;2.03;;;;;;;12.39;77.48;101890.53;5057209;28;20230;-77
2022/05/13 04:57:37;;;;;;;10.40;2.83;;;;;;;12.36;76.97;101893.25;5061898;28;20045;-77
2022/05/13 05:00:07;;;;;;;6.68;1.73;;;;;;;12.39;76.57;101899.28;5074222;28;20051;-77
2022/05/13 05:02:33;;;;;;;12.63;2.13;;;;;;;12.35;77.75;101905.53;5070730;28;20380;-77
2022/05/13 05:04:59;;;;;;;8.23;1.88;;;;;;;12.37;77.41;101916.84;5059464;28;20031;-77
2022/05/13 05:07:24;;;;;;;5.65;1.60;;;;;;;12.41;76.65;101904.47;5059145;28;20413;-77
2022/05/13 05:09:49;;;;;;;5.60;1.83;;;;;;;12.43;77.52;101910.53;5063458;28;20111;-77
2022/05/13 05:12:15;;;;;;;9.10;1.77;;;;;;;12.43;77.18;101910.53;5055084;28;20186;-78
2022/05/13 05:14:40;;;;;;;7.68;1.52;;;;;;;12.44;77.00;101917.50;5073532;28;20235;-77
2022/05/13 05:17:06;;;;;;;7.88;1.48;;;;;;;12.48;76.87;101912.13;5064950;28;20041;-77
2022/05/13 05:19:31;;;;;;;12.82;2.17;;;;;;;12.47;77.34;101923.50;5059310;28;20028;-77
2022/05/13 05:21:57;;;;;;;9.10;2.03;;;;;;;12.49;76.45;101920.84;5076941;28;20074;-77
2022/05/13 05:24:22;;;;;;;9.98;1.92;;;;;;;12.47;76.46;101918.25;5058800;28;20355;-77
2022/05/13 05:26:47;;;;;;;5.35;1.95;;;;;;;12.52;76.21;101919.91;5058681;28;20351;-77
2022/05/13 05:29:13;;;;;;;3.08;1.20;;;;;;;12.51;75.51;101928.69;5044970;28;20360;-77
2022/05/13 05:31:39;;;;;;;5.10;1.70;;;;;;;12.52;75.61;101933.03;5036427;28;20044;-77
2022/05/13 05:34:05;;;;;;;5.53;1.45;;;;;;;12.56;75.29;101932.88;5057966;28;20040;-78
2022/05/13 05:36:31;;;;;;;10.38;2.22;;;;;;;12.55;76.59;101938.19;5053971;28;20342;-77
2022/05/13 05:38:56;;;;;;;10.82;1.90;;;;;;;12.56;76.68;101939.91;5058366;28;20041;-78
2022/05/13 05:41:22;;;;;;;7.75;1.90;;;;;;;12.56;77.72;101937.28;5058456;28;20044;-78
2022/05/13 05:43:48;;;;;;;8.60;1.92;;;;;;;12.57;77.48;101944.25;5076051;28;20067;-77
2022/05/13 05:46:13;;;;;;;3.47;1.30;;;;;;;12.58;77.50;101949.47;5058326;28;20044;-77
2022/05/13 05:48:38;;;;;;;9.73;1.40;;;;;;;12.60;75.19;101952.91;5058105;28;20028;-78
2022/05/13 05:51:04;;;;;;;6.50;1.50;;;;;;;12.58;74.75;101952.09;5070933;28;20332;-77
2022/05/13 05:59:00;;;;;;;4.32;1.15;;;;;;;12.61;73.66;101959.03;5076213;28;20347;-77
2022/05/13 06:01:27;;;;;;;5.47;1.15;;;;;;;12.63;73.24;101967.72;5075145;28;20036;-77
2022/05/13 06:03:52;;;;;;;8.63;1.20;;;;;;;12.60;72.80;101958.16;5075164;28;20044;-77
2022/05/13 06:06:18;;;;;;;7.40;1.40;;;;;;;12.62;73.19;101960.72;5040056;28;20028;-78
2022/05/13 06:08:43;;;;;;;4.13;1.50;;;;;;;12.63;72.95;101970.34;5076033;28;20066;-77
2022/05/13 06:11:09;;;;;;;8.45;1.50;;;;;;;12.65;73.29;101976.41;5075794;28;20032;-77
2022/05/13 06:13:35;;;;;;;13.35;1.67;;;;;;;12.61;73.12;101980.06;5050372;28;20403;-77
2022/05/13 06:16:01;;;;;;;4.53;1.63;;;;;;;12.65;73.10;101981.66;5069074;28;20040;-77
2022/05/13 06:18:26;;;;;;;4.30;1.20;;;;;;;12.63;71.92;101975.59;5046112;28;20094;-77
2022/05/13 06:20:51;;;;;;;5.07;1.30;;;;;;;12.63;72.22;101979.09;5057676;28;20040;-77
2022/05/13 06:23:17;;;;;;;4.72;1.00;;;;;;;12.64;71.60;101983.44;5053664;28;20326;-77
2022/05/13 06:25:42;;;;;;;6.03;1.25;;;;;;;12.62;71.80;101990.50;5037986;28;20041;-78
2022/05/13 06:28:08;;;;;;;2.97;0.70;;;;;;;12.63;71.85;101988.75;5069331;28;20036;-77
2022/05/13 06:30:35;;;;;;;4.72;1.00;;;;;;;12.62;71.55;101976.50;5055223;28;20029;-77
2022/05/13 06:33:01;;;;;;;2.40;1.10;;;;;;;12.63;71.37;101979.09;5053478;28;20035;-77
2022/05/13 06:35:29;;;;;;;3.40;0.98;;;;;;;12.64;72.17;101993.97;5069572;28;20239;-77
2022/05/13 06:37:55;;;;;;;4.15;1.08;;;;;;;12.64;71.34;101977.31;5064953;28;20051;-77
2022/05/13 06:40:24;;;;;;;5.38;1.33;;;;;;;12.64;71.22;101979.94;5073824;28;20044;-77
2022/05/13 06:42:50;;;;;;;3.15;1.00;;;;;;;12.65;71.51;101979.03;5074526;28;20040;-77
2022/05/13 06:45:16;;;;;;;3.67;1.15;;;;;;;12.68;71.96;101984.22;5071207;28;20320;-78
2022/05/13 06:47:41;;;;;;;7.32;1.23;;;;;;;12.71;71.87;101981.47;5073602;28;20120;-77
2022/05/13 06:50:10;;;;;;;8.82;1.67;;;;;;;12.74;72.34;101989.28;5067369;28;20131;-77
2022/05/13 06:52:36;;;;;;;5.60;1.38;;;;;;;12.77;72.03;101988.28;5072234;28;20056;-77
2022/05/13 06:55:02;;;;;;;6.72;1.33;;;;;;;12.77;71.61;101993.56;5061284;28;20051;-77
2022/05/13 06:57:28;;;;;;;4.53;1.23;;;;;;;12.79;71.06;101992.63;5068249;28;20266;-80
2022/05/13 06:59:53;;;;;;;3.72;0.93;;;;;;;12.80;71.16;101989.06;5056426;28;20077;-77
2022/05/13 07:02:19;;;;;;;4.32;1.52;;;;;;;12.82;70.47;101997.78;5073146;28;20040;-77
2022/05/13 07:04:45;;;;;;;4.82;1.30;;;;;;;12.81;70.36;102003.94;5076008;28;20212;-77
2022/05/13 07:07:14;;;;;;;7.97;1.50;;;;;;;12.83;70.84;102004.75;5073174;28;20048;-77
2022/05/13 07:09:40;;;;;;;3.67;1.13;;;;;;;12.84;70.54;102010.84;5074509;28;20062;-77
2022/05/13 07:12:07;;;;;;;3.47;1.20;;;;;;;12.86;70.40;102022.19;5058079;28;20040;-78
2022/05/13 07:14:34;;;;;;;7.47;1.58;;;;;;;12.89;70.95;102018.63;5070777;28;20045;-77
2022/05/13 07:17:00;;;;;;;6.03;1.27;;;;;;;12.90;71.21;102010.69;5069155;28;20266;-78
2022/05/13 07:19:25;;;;;;;4.90;1.52;;;;;;;12.93;71.32;102020.22;5073080;28;20106;-77
2022/05/13 07:21:51;;;;;;;5.60;1.40;;;;;;;12.94;72.00;102024.59;5039117;28;20232;-78
2022/05/13 07:24:16;;;;;;;5.95;1.20;;;;;;;12.97;71.60;102024.47;5054098;28;20054;-77
2022/05/13 07:26:42;;;;;;;7.18;1.38;;;;;;;12.97;71.85;102022.72;5050322;28;20052;-77
2022/05/13 07:29:07;;;;;;;9.43;1.95;;;;;;;13.00;72.74;102037.53;5071252;28;20090;-78
2022/05/13 07:31:34;;;;;;;6.07;1.20;;;;;;;12.99;71.72;102036.69;5051813;28;20147;-77
2022/05/13 07:34:00;;;;;;;4.60;1.38;;;;;;;12.99;71.03;102030.56;5067495;28;20048;-77
2022/05/13 07:36:28;;;;;;;6.75;1.25;;;;;;;13.01;71.76;102034.00;5066149;28;20029;-77
2022/05/13 07:41:38;;;;;;;5.93;1.30;;;;;;;13.01;71.53;102034.00;5062388;28;20046;-77
2022/05/13 07:44:04;;;;;;;9.60;1.58;;;;;;;13.01;71.51;102044.53;5055651;28;20110;-77
2022/05/13 07:46:29;;;;;;;8.50;1.83;;;;;;;13.00;71.29;102037.53;5069405;28;20052;-77
2022/05/13 07:48:54;;;;;;;5.05;1.08;;;;;;;13.01;70.81;102036.63;5054935;28;20036;-77
2022/05/13 07:51:23;;;;;;;8.75;1.58;;;;;;;13.01;71.02;102042.75;5055521;28;20064;-77
2022/05/13 07:53:48;;;;;;;5.55;1.50;;;;;;;13.03;70.91;102040.94;5072280;28;20064;-77
2022/05/13 07:56:14;;;;;;;3.72;1.10;;;;;;;13.06;70.68;102055.72;5051084;28;20336;-77
2022/05/13 07:58:39;;;;;;;5.63;1.20;;;;;;;13.08;70.67;102048.69;5049397;28;20045;-77
2022/05/13 08:01:04;;;;;;;5.75;1.20;;;;;;;13.09;70.24;102049.53;5047573;28;20048;-78
2022/05/13 08:03:30;;;;;;;3.53;1.23;;;;;;;13.12;70.26;102049.44;5051731;28;20040;-77
2022/05/13 08:06:02;;;;;;;4.75;1.55;;;;;;;13.16;69.93;102051.91;5038033;28;20040;-77
2022/05/13 08:08:40;;;;;;;4.75;1.23;;;;;;;13.16;69.57;102049.28;5065992;28;20336;-77
2022/05/13 08:11:10;;;;;;;10.93;1.53;;;;;;;13.17;69.60;102051.03;5072876;28;20024;-77
2022/05/13 08:13:36;;;;;;;4.57;1.20;;;;;;;13.19;69.68;102051.81;5071573;28;20048;-77
2022/05/13 08:16:04;;;;;;;3.58;1.10;;;;;;;13.20;68.83;102047.41;5070087;28;20055;-77
2022/05/13 08:18:29;;;;;;;4.38;1.08;;;;;;;13.21;69.28;102052.63;5055542;28;20049;-78
2022/05/13 08:20:55;;;;;;;2.40;1.17;;;;;;;13.24;69.44;102041.13;5051995;28;20078;-78
2022/05/13 08:23:20;;;;;;;5.68;1.45;;;;;;;13.24;70.05;102043.75;5071120;28;20044;-78
2022/05/13 08:25:47;;;;;;;5.03;1.15;;;;;;;13.28;70.28;102044.53;5058753;28;20083;-78
2022/05/13 08:28:14;;;;;;;6.63;1.30;;;;;;;13.29;69.78;102049.75;5070876;28;20154;-78
2022/05/13 08:30:41;;;;;;;6.80;1.90;;;;;;;13.32;70.55;102059.34;5073387;28;20067;-78
2022/05/13 08:33:09;;;;;;;5.03;1.10;;;;;;;13.33;70.08;102055.78;5058137;28;20052;-77
2022/05/13 08:35:37;;;;;;;7.97;1.52;;;;;;;13.35;70.02;102062.75;5072208;28;20048;-78
2022/05/13 08:38:02;;;;;;;6.38;2.05;;;;;;;13.32;69.84;102067.25;5056604;28;20107;-78
2022/05/13 08:40:52;;;;;;;6.85;1.58;;;;;;;13.31;69.76;102070.78;5057658;28;20296;-77
2022/05/13 08:43:41;;;;;;;6.72;1.83;;;;;;;13.36;70.13;102064.44;5058394;28;20146;-78
2022/05/13 08:46:20;;;;;;;4.82;1.27;;;;;;;13.41;70.29;102067.78;5058585;28;20311;-77
2022/05/13 08:48:54;;;;;;;3.55;1.42;;;;;;;13.41;69.81;102080.94;5065930;28;20205;-78
2022/05/13 08:51:28;;;;;;;5.68;1.77;;;;;;;13.40;69.84;102083.63;5057172;28;20036;-77
2022/05/13 08:54:10;;;;;;;9.27;1.65;;;;;;;13.38;69.77;102090.72;5046987;28;20119;-77
2022/05/13 08:56:36;;;;;;;7.63;1.20;;;;;;;13.39;70.37;102085.41;5069536;28;20316;-78
2022/05/13 08:59:14;;;;;;;7.47;1.45;;;;;;;13.46;70.50;102079.94;5050451;28;20068;-78
2022/05/13 09:01:44;;;;;;;;;;;;;;;13.46;70.77;102095.72;5073398;28;20036;-77
2022/05/13 09:04:13;;;;;;;6.43;1.75;;;;;;;13.51;70.65;102102.56;5070700;28;19963;-77
2022/05/13 09:06:51;;;;;;;9.82;2.00;;;;;;;13.55;70.21;102093.66;5068088;28;20040;-77
2022/05/13 09:09:16;;;;;;;6.47;2.03;;;;;;;13.60;70.74;102115.41;5051794;28;20056;-77
2022/05/13 09:11:44;;;;;;;5.00;1.70;;;;;;;13.63;70.05;102104.78;5075913;28;20113;-77
2022/05/13 09:14:25;;;;;;;9.85;2.17;;;;;;;13.69;69.86;102108.13;5072661;28;20103;-77
2022/05/13 09:17:23;;;;;;;20.08;1.75;;;;;;;13.77;70.31;102106.09;5074780;28;20040;-77
2022/05/13 09:20:01;;;;;;;5.90;2.05;;;;;;;13.86;69.68;102112.81;5059060;28;20386;-77
2022/05/13 09:22:41;;;;;;;9.80;2.33;;;;;;;13.88;69.26;102111.88;5065966;28;20091;-78
2022/05/13 09:25:14;;;;;;;8.25;1.52;;;;;;;13.86;67.65;102128.63;5066710;28;20032;-78
2022/05/13 09:28:05;;;;;;;5.63;1.38;;;;;;;13.83;68.54;102117.28;5054907;28;20107;-77
2022/05/13 09:30:37;;;;;;;6.07;1.80;;;;;;;13.86;69.61;102113.69;5066658;28;20036;-77
2022/05/13 09:33:24;;;;;;;4.55;1.33;;;;;;;13.90;69.01;102122.31;5067003;28;20040;-77
2022/05/13 09:35:56;;;;;;;7.18;1.70;;;;;;;13.89;68.21;102120.63;5065796;28;20328;-77
2022/05/13 09:38:32;;;;;;;5.55;1.50;;;;;;;13.89;68.26;102105.69;5048702;28;20029;-77
2022/05/13 09:41:01;;;;;;;5.05;1.95;;;;;;;13.90;69.12;102120.56;5049306;28;20336;-78
2022/05/13 09:43:37;;;;;;;8.52;1.40;;;;;;;13.86;67.88;102113.69;5074036;28;20033;-78
2022/05/13 09:46:22;;;;;;;9.40;1.58;;;;;;;13.87;68.43;102110.13;5053830;28;20025;-78
2022/05/13 09:48:59;;;;;;;5.97;1.35;;;;;;;13.89;68.60;102102.19;5067168;28;20052;-77
2022/05/13 09:51:36;;;;;;;5.25;1.48;;;;;;;13.91;69.00;102111.75;5070372;28;20036;-78
2022/05/13 09:54:01;;;;;;;6.53;1.65;;;;;;;13.94;68.60;102116.06;5070182;28;20260;-77
2022/05/13 09:56:40;;;;;;;3.13;1.30;;;;;;;13.94;68.01;102122.19;5068715;28;20300;-77
2022/05/13 09:59:18;;;;;;;7.05;1.50;;;;;;;13.98;67.98;102120.31;5073178;28;20403;-77
2022/05/13 10:01:44;;;;;;;5.67;1.27;;;;;;;14.04;68.38;102113.97;5074444;28;20040;-77
2022/05/13 10:04:23;;;;;;;4.95;1.30;;;;;;;14.08;68.50;102119.09;5038529;28;20044;-77
2022/05/13 10:06:49;;;;;;;7.28;1.70;;;;;;;14.13;68.23;102118.91;5053553;28;20044;-77
2022/05/13 10:15:25;;;;;;;5.60;1.35;;;;;;;14.06;67.05;102120.91;5071718;28;20097;-78
2022/05/13 10:17:55;;;;;;;5.22;1.45;;;;;;;14.04;66.62;102119.22;5050316;28;20059;-77
2022/05/13 10:20:23;;;;;;;8.60;1.42;;;;;;;14.08;67.30;102112.94;5067054;28;20037;-77
2022/05/13 10:22:59;;;;;;;7.32;1.83;;;;;;;14.12;67.38;102118.06;5047372;28;20075;-77
2022/05/13 10:25:32;;;;;;;2.85;1.42;;;;;;;14.16;67.95;102124.94;5065749;28;20346;-78
2022/05/13 10:28:11;;;;;;;3.00;1.13;;;;;;;14.16;66.65;102118.81;5050423;28;20032;-77
2022/05/13 10:30:42;;;;;;;8.77;1.77;;;;;;;14.18;67.30;102117.81;5068419;28;20244;-78
2022/05/13 10:33:19;;;;;;;4.03;1.52;;;;;;;14.21;66.58;102123.00;5064776;28;20310;-77
2022/05/13 10:36:07;;;;;;;5.72;1.13;;;;;;;14.25;67.63;102115.00;5062491;28;20217;-79
2022/05/13 10:38:45;;;;;;;3.65;1.20;;;;;;;14.26;65.45;102122.84;5071264;28;20054;-78
2022/05/13 10:41:22;;;;;;;5.80;1.50;;;;;;;14.32;66.90;102134.94;5073498;28;20220;-77
2022/05/13 10:44:08;;;;;;;5.32;1.10;;;;;;;14.35;66.05;102119.00;5070728;28;20101;-77
2022/05/13 10:46:45;;;;;;;4.82;1.23;;;;;;;14.37;65.65;102125.94;5055287;28;20025;-77
2022/05/13 10:49:12;;;;;;;4.13;1.40;;;;;;;14.43;66.43;102135.41;5063166;28;20029;-77
2022/05/13 10:51:45;;;;;;;1.83;1.10;;;;;;;14.41;66.32;102121.44;5068003;28;20229;-78
2022/05/13 10:54:24;;;;;;;10.13;1.50;;;;;;;14.43;66.09;102124.00;5061796;28;20047;-77
2022/05/13 10:56:56;;;;;;;2.03;0.95;;;;;;;14.44;66.68;102123.94;5068858;28;20031;-77
2022/05/13 10:59:38;;;;;;;7.07;1.45;;;;;;;14.49;66.43;102123.78;5071549;28;20107;-77
2022/05/13 11:02:06;;;;;;;5.85;1.52;;;;;;;14.53;66.20;102115.69;5067977;28;20070;-77
2022/05/13 11:04:53;;;;;;;7.35;1.20;;;;;;;14.55;63.86;102127.06;5053695;28;20038;-77
2022/05/13 11:07:50;;;;;;;7.03;1.80;;;;;;;14.56;63.42;102117.38;5052460;28;20030;-78
2022/05/13 11:10:31;;;;;;;4.72;1.42;;;;;;;14.59;64.58;102110.22;5070511;28;20052;-77
2022/05/13 11:13:15;;;;;;;7.63;1.83;;;;;;;14.63;65.14;102110.97;5053218;28;20059;-78
2022/05/13 11:15:58;;;;;;;3.45;1.40;;;;;;;14.67;65.53;102099.38;5052273;28;20285;-78
2022/05/13 11:18:46;;;;;;;6.47;1.77;;;;;;;14.67;65.17;102106.44;5072063;28;20091;-77
2022/05/13 11:21:24;;;;;;;2.95;1.05;;;;;;;14.72;65.39;102101.88;5054002;28;20033;-78
2022/05/13 11:26:59;;;;;;;4.97;1.10;;;;;;;14.82;62.00;102119.03;5070328;28;20048;-78
2022/05/13 11:29:39;;;;;;;6.90;1.75;;;;;;;14.87;63.58;102113.59;5068206;28;20205;-78
2022/05/13 11:32:07;;;;;;;6.45;0.80;;;;;;;14.96;64.40;102118.53;5071519;28;20036;-78
2022/05/13 11:34:47;;;;;;;3.73;0.97;;;;;;;14.95;63.98;102125.59;5049762;28;20078;-78
2022/05/13 11:37:15;;;;;;;4.93;1.30;;;;;;;14.93;63.17;102118.63;5069969;28;20028;-78
2022/05/13 11:39:51;;;;;;;3.65;1.17;;;;;;;14.92;64.75;102112.50;5051570;28;20025;-77
2022/05/13 11:42:31;;;;;;;5.47;1.45;;;;;;;14.92;63.82;102116.94;5069219;28;20370;-78
2022/05/13 11:45:30;;;;;;;3.78;1.45;;;;;;;14.91;62.84;102131.03;5066047;28;20099;-78
2022/05/13 11:48:22;;;;;;;9.63;2.40;;;;;;;14.87;65.32;102129.44;5054845;28;20217;-78
2022/05/13 11:50:49;;;;;;;3.80;1.50;;;;;;;14.82;65.13;102126.94;5069311;28;20058;-78
2022/05/13 11:53:46;;;;;;;7.07;1.35;;;;;;;14.81;65.27;102133.16;5067781;28;20032;-78
2022/05/13 11:56:16;;;;;;;3.45;1.20;;;;;;;14.80;65.85;102120.88;5069256;28;20102;-77
2022/05/13 11:58:49;;;;;;;4.57;1.63;;;;;;;14.84;65.96;102126.91;5052198;28;20217;-77
2022/05/13 12:01:37;;;;;;;3.47;1.30;;;;;;;14.89;66.33;102122.31;5070860;28;20044;-78
2022/05/13 12:04:16;;;;;;;12.02;1.58;;;;;;;14.96;66.31;102126.44;5048444;28;20099;-78
2022/05/13 12:06:50;;;;;;;6.22;1.83;;;;;;;15.06;65.97;102126.94;5055464;28;20067;-78
2022/05/13 12:09:28;;;;;;;7.55;1.45;;;;;;;15.11;65.85;102131.09;5067697;28;20052;-77